Time;durP1;ratioP1;P1;durP2;ratioP2;P2;SDS_P1;SDS_P2;PMS_P1;PMS_P2;Temp;Humidity;BMP_temperature;BMP_pressure;BME280_temperature;BME280_humidity;BME280_pressure;Samples;Min_cycle;Max_cycle;Signal;HPM_P1;HPM_P2
2022/07/03 00:04:41;;;;;;;;;;;;;;;22.35;46.35;95964.59;10508696;28;1914;-60
2022/07/03 00:09:42;;;;;;;;;;;;;;;22.34;45.87;95966.44;10507985;28;1684;-59
2022/07/03 00:14:42;;;;;;;;;;;;;;;22.36;46.28;95959.00;10504874;28;1918;-61
2022/07/03 00:19:43;;;;;;;;;;;;;;;22.37;46.29;95968.53;10506007;28;1847;-60
2022/07/03 00:24:44;;;;;;;;;;;;;;;22.39;46.27;95961.13;10504096;28;1795;-60
2022/07/03 00:29:45;;;;;;;;;;;;;;;22.40;46.39;95961.91;10489966;28;1787;-61
2022/07/03 00:34:45;;;;;;;;;;;;;;;22.41;46.49;95964.25;10499939;28;2009;-61
2022/07/03 00:39:45;;;;;;;;;;;;;;;22.40;46.23;95957.38;10504137;28;1950;-60
2022/07/03 00:44:48;;;;;;;;;;;;;;;22.42;46.55;95957.91;10488555;28;1985;-59
2022/07/03 00:49:49;;;;;;;;;;;;;;;22.44;46.37;95955.00;10506576;28;1820;-60
2022/07/03 00:54:53;;;;;;;;;;;;;;;22.44;46.31;95961.03;10510380;28;1939;-60
2022/07/03 00:59:54;;;;;;;;;;;;;;;22.44;46.49;95958.41;10508288;28;2291;-60
2022/07/03 01:04:58;;;;;;;;;;;;;;;22.45;46.63;95943.34;10505287;28;1871;-60
2022/07/03 01:10:05;;;;;;;;;;;;;;;22.46;46.45;95940.41;10502301;28;2002;-58
2022/07/03 01:15:09;;;;;;;;;;;;;;;22.48;46.49;95953.38;10495627;28;1988;-59
2022/07/03 01:20:10;;;;;;;;;;;;;;;22.47;46.48;95947.28;10496939;28;1913;-61
2022/07/03 01:25:24;;;;;;;;;;;;;;;22.46;46.10;95948.34;10482969;28;1929;-59
2022/07/03 01:30:44;;;;;;;;;;;;;;;22.49;46.09;95947.78;10500009;28;1966;-61
2022/07/03 01:36:05;;;;;;;;;;;;;;;22.50;46.42;95935.38;10490152;28;2049;-60
2022/07/03 01:41:06;;;;;;;;;;;;;;;22.48;46.46;95938.28;10501575;28;2024;-60
2022/07/03 01:46:07;;;;;;;;;;;;;;;22.51;46.20;95939.56;10497899;28;1871;-60
2022/07/03 01:51:07;;;;;;;;;;;;;;;22.51;46.52;95932.44;10500887;28;1902;-61
2022/07/03 01:56:08;;;;;;;;;;;;;;;22.52;46.14;95928.72;10501560;28;2170;-60
2022/07/03 02:01:11;;;;;;;;;;;;;;;22.56;46.45;95935.03;10503131;28;1838;-60
2022/07/03 02:06:12;;;;;;;;;;;;;;;22.52;46.41;95939.28;10505137;28;1941;-61
2022/07/03 02:11:19;;;;;;;;;;;;;;;22.54;46.53;95939.81;10505236;28;2007;-61
2022/07/03 02:16:21;;;;;;;;;;;;;;;22.56;46.53;95940.34;10500378;28;1997;-61
2022/07/03 02:21:22;;;;;;;;;;;;;;;22.55;46.44;95944.03;10502951;28;2028;-60
2022/07/03 02:26:25;;;;;;;;;;;;;;;22.57;46.63;95944.53;10506254;28;1878;-60
2022/07/03 02:31:26;;;;;;;;;;;;;;;22.58;46.25;95940.06;10498622;28;1898;-59
2022/07/03 02:36:29;;;;;;;;;;;;;;;22.57;46.35;95944.53;10500620;28;1993;-60
2022/07/03 02:41:46;;;;;;;;;;;;;;;22.57;46.28;95939.25;10482368;28;1993;-59
2022/07/03 02:46:59;;;;;;;;;;;;;;;22.58;46.50;95948.00;10503932;28;1956;-60
2022/07/03 02:52:15;;;;;;;;;;;;;;;22.58;46.65;95946.16;10499263;28;1957;-60
2022/07/03 02:57:19;;;;;;;;;;;;;;;22.57;46.50;95947.19;10503775;28;1921;-58
2022/07/03 03:02:38;;;;;;;;;;;;;;;22.58;46.20;95948.00;10502776;28;1944;-60
2022/07/03 03:07:41;;;;;;;;;;;;;;;22.58;46.44;95959.38;10503471;28;2075;-59
2022/07/03 03:12:42;;;;;;;;;;;;;;;22.57;46.51;95962.22;10509691;28;2020;-60
2022/07/03 03:17:43;;;;;;;;;;;;;;;22.56;46.64;95969.41;10508444;28;2020;-60
2022/07/03 03:23:00;;;;;;;;;;;;;;;22.58;46.58;95971.78;10511018;28;1948;-61
2022/07/03 03:28:00;;;;;;;;;;;;;;;22.58;46.32;95982.34;10506517;28;1890;-60
2022/07/03 03:33:00;;;;;;;;;;;;;;;22.60;46.16;95974.94;10505936;28;1901;-61
2022/07/03 03:38:01;;;;;;;;;;;;;;;22.59;46.36;95979.41;10509182;28;1977;-58
2022/07/03 03:43:01;;;;;;;;;;;;;;;22.58;46.23;95985.78;10505002;28;1862;-59
2022/07/03 03:48:05;;;;;;;;;;;;;;;22.57;46.33;95978.09;10508587;28;1952;-59
2022/07/03 03:53:06;;;;;;;;;;;;;;;22.58;46.63;95980.50;10511379;28;1988;-60
2022/07/03 03:58:07;;;;;;;;;;;;;;;22.58;46.51;95982.34;10490295;28;1918;-59
2022/07/03 04:03:07;;;;;;;;;;;;;;;22.59;46.57;95984.69;10509997;28;1924;-58
2022/07/03 04:08:08;;;;;;;;;;;;;;;22.59;46.51;95992.63;10510316;28;1996;-58
2022/07/03 04:13:08;;;;;;;;;;;;;;;22.61;46.38;95994.97;10501279;28;1858;-60
2022/07/03 04:18:08;;;;;;;;;;;;;;;22.60;46.49;95996.84;10509122;28;1965;-60
2022/07/03 04:23:09;;;;;;;;;;;;;;;22.59;46.54;95991.84;10504340;28;1878;-59
2022/07/03 04:28:10;;;;;;;;;;;;;;;22.59;46.52;95997.91;10509961;28;2007;-59
2022/07/03 04:33:10;;;;;;;;;;;;;;;22.60;46.29;95994.22;10504410;28;1948;-60
2022/07/03 04:38:11;;;;;;;;;;;;;;;22.60;46.47;95996.06;10507389;28;2071;-58
2022/07/03 04:43:12;;;;;;;;;;;;;;;22.62;46.66;95997.38;10503050;28;1927;-59
2022/07/03 04:48:13;;;;;;;;;;;;;;;22.62;46.60;96004.50;10506453;28;1918;-57
2022/07/03 04:53:14;;;;;;;;;;;;;;;22.63;46.39;96006.84;10499852;28;2377;-59
2022/07/03 04:58:14;;;;;;;;;;;;;;;22.61;46.81;96003.69;10509014;28;1983;-60
2022/07/03 05:03:14;;;;;;;;;;;;;;;22.63;46.48;96014.78;10501525;28;1925;-57
2022/07/03 05:08:15;;;;;;;;;;;;;;;22.63;46.69;96014.78;10507291;28;1940;-60
2022/07/03 05:13:15;;;;;;;;;;;;;;;22.64;46.60;96020.84;10499495;28;2008;-60
2022/07/03 05:18:16;;;;;;;;;;;;;;;22.64;46.54;96013.72;10505387;28;1981;-58
2022/07/03 05:23:16;;;;;;;;;;;;;;;22.65;46.41;96025.06;10504711;28;1906;-60
2022/07/03 05:28:17;;;;;;;;;;;;;;;22.63;46.75;96020.06;10510621;28;1858;-59
2022/07/03 05:33:17;;;;;;;;;;;;;;;22.65;46.41;96025.84;10499337;28;2019;-60
2022/07/03 05:39:31;;;;;;;;;;;;;;;22.65;46.65;96028.50;10506567;28;1938;-59
2022/07/03 05:43:38;;;;;;;;;;;;;;;22.64;46.69;96026.16;10507176;28;2043;-61
2022/07/03 05:48:39;;;;;;;;;;;;;;;22.66;46.65;96021.38;10506185;28;1925;-59
2022/07/03 05:53:39;;;;;;;;;;;;;;;22.67;46.98;96033.50;10501169;28;1980;-59
2022/07/03 05:58:41;;;;;;;;;;;;;;;22.66;46.54;96031.94;10503336;28;1968;-58
2022/07/03 06:03:42;;;;;;;;;;;;;;;22.67;46.64;96033.50;10505032;28;1972;-59
2022/07/03 06:08:43;;;;;;;;;;;;;;;22.67;46.49;96031.66;10500478;28;2019;-60
2022/07/03 06:13:43;;;;;;;;;;;;;;;22.68;46.50;96032.44;10500131;28;1948;-59
2022/07/03 06:18:44;;;;;;;;;;;;;;;22.67;46.65;96024.81;10502586;28;1909;-60
2022/07/03 06:23:44;;;;;;;;;;;;;;;22.68;46.57;96035.09;10500903;28;1949;-59
2022/07/03 06:28:44;;;;;;;;;;;;;;;22.68;46.62;96029.81;10503172;28;1945;-59
2022/07/03 06:33:46;;;;;;;;;;;;;;;22.70;46.71;96034.78;10502341;28;1973;-59
2022/07/03 06:38:46;;;;;;;;;;;;;;;22.70;46.58;96025.03;10506194;28;2159;-59
2022/07/03 06:43:47;;;;;;;;;;;;;;;22.70;46.64;96034.78;10503405;28;2142;-57
2022/07/03 06:48:47;;;;;;;;;;;;;;;22.68;46.91;96029.81;10496898;28;2071;-58
2022/07/03 06:53:47;;;;;;;;;;;;;;;22.69;46.89;96033.22;10506708;28;1993;-59
2022/07/03 06:58:48;;;;;;;;;;;;;;;22.70;46.73;96029.50;10517600;28;1937;-59
2022/07/03 07:03:49;;;;;;;;;;;;;;;22.70;46.99;96032.16;10506529;28;1929;-60
2022/07/03 07:08:49;;;;;;;;;;;;;;;22.69;46.86;96033.22;10511452;28;2028;-59
2022/07/03 07:13:50;;;;;;;;;;;;;;;22.69;46.72;96043.81;10506722;28;1971;-58
2022/07/03 07:18:50;;;;;;;;;;;;;;;22.71;47.04;96046.97;10512975;28;1928;-59
2022/07/03 07:23:50;;;;;;;;;;;;;;;22.70;46.65;96040.88;10507083;28;1992;-60
2022/07/03 07:28:51;;;;;;;;;;;;;;;22.71;47.18;96036.38;10508510;28;2143;-59
2022/07/03 07:33:51;;;;;;;;;;;;;;;22.69;46.87;96038.53;10509201;28;1976;-59
2022/07/03 07:38:51;;;;;;;;;;;;;;;22.71;47.10;96039.78;10514279;28;1937;-59
2022/07/03 07:43:52;;;;;;;;;;;;;;;22.71;46.90;96037.16;10511244;28;2020;-59
2022/07/03 07:48:52;;;;;;;;;;;;;;;22.72;46.82;96038.75;10507258;28;1949;-60
2022/07/03 07:53:56;;;;;;;;;;;;;;;22.73;46.92;96042.19;10513986;28;2038;-59
2022/07/03 07:58:57;;;;;;;;;;;;;;;22.74;47.27;96038.44;10514041;28;1901;-58
2022/07/03 08:09:16;;;;;;;;;;;;;;;22.76;47.25;96044.25;10505391;28;2125;-60
2022/07/03 08:14:19;;;;;;;;;;;;;;;22.77;47.16;96040.56;10504046;28;1973;-60
2022/07/03 08:19:20;;;;;;;;;;;;;;;22.80;47.22;96039.97;10506876;28;1992;-59
2022/07/03 08:24:20;;;;;;;;;;;;;;;22.80;47.50;96032.84;10506714;28;1747;-60
2022/07/03 08:29:20;;;;;;;;;;;;;;;22.82;47.60;96037.84;10507284;28;1886;-61
2022/07/03 08:34:21;;;;;;;;;;;;;;;22.84;47.75;96033.84;10506338;28;1979;-60
2022/07/03 08:39:23;;;;;;;;;;;;;;;22.87;47.93;96028.03;10508347;28;1980;-62
2022/07/03 08:44:23;;;;;;;;;;;;;;;22.91;48.02;96020.31;10496521;28;1913;-62
2022/07/03 08:49:23;;;;;;;;;;;;;;;22.90;48.06;96027.44;10505522;28;2048;-61
2022/07/03 08:54:24;;;;;;;;;;;;;;;22.90;48.09;96021.34;10500523;28;1938;-61
2022/07/03 08:59:25;;;;;;;;;;;;;;;22.93;48.17;96012.88;10505280;28;1960;-60
2022/07/03 09:04:26;;;;;;;;;;;;;;;22.93;48.33;96023.44;10499344;28;1921;-58
2022/07/03 09:09:26;;;;;;;;;;;;;;;22.93;48.31;96018.16;10485577;28;1925;-60
2022/07/03 09:14:27;;;;;;;;;;;;;;;22.95;47.91;96018.66;10496875;28;1987;-60
2022/07/03 09:19:41;;;;;;;;;;;;;;;22.97;48.02;96013.88;10510170;28;1976;-60
2022/07/03 09:24:42;;;;;;;;;;;;;;;22.96;48.01;96012.31;10503895;28;2357;-61
2022/07/03 09:29:50;;;;;;;;;;;;;;;22.97;47.98;96013.88;10498481;28;1964;-61
2022/07/03 09:35:00;;;;;;;;;;;;;;;22.97;48.29;96008.59;10494147;28;2049;-59
2022/07/03 09:40:02;;;;;;;;;;;;;;;22.99;48.10;96009.91;10508456;28;2020;-59
2022/07/03 09:45:04;;;;;;;;;;;;;;;23.00;48.43;96013.34;10499449;28;2111;-59
2022/07/03 09:50:07;;;;;;;;;;;;;;;23.02;48.15;96009.31;10509391;28;1704;-59
2022/07/03 09:55:12;;;;;;;;;;;;;;;23.03;48.20;96012.75;10503996;28;1934;-60
2022/07/03 10:00:16;;;;;;;;;;;;;;;23.03;48.46;96007.47;10506305;28;1817;-60
2022/07/03 10:05:16;;;;;;;;;;;;;;;23.04;48.29;96004.53;10501520;28;1827;-61
2022/07/03 10:10:17;;;;;;;;;;;;;;;23.05;48.56;96000.84;10503094;28;1844;-61
2022/07/03 10:15:18;;;;;;;;;;;;;;;23.04;48.55;95993.19;10501817;28;1918;-61
2022/07/03 10:20:41;;;;;;;;;;;;;;;23.03;48.39;95995.03;10507419;28;1856;-59
2022/07/03 10:25:42;;;;;;;;;;;;;;;23.05;47.99;95992.13;10499050;28;2216;-61
2022/07/03 10:30:43;;;;;;;;;;;;;;;23.04;48.23;95988.66;10507653;28;2168;-60
2022/07/03 10:35:45;;;;;;;;;;;;;;;23.01;47.87;95981.31;10506258;28;1957;-60
2022/07/03 10:46:10;;;;;;;;;;;;;;;23.03;48.48;95979.19;10516907;28;1442;-60
2022/07/03 10:51:11;;;;;;;;;;;;;;;23.04;48.47;95978.09;10516396;28;1434;-62
2022/07/03 10:56:11;;;;;;;;;;;;;;;23.08;48.36;95973.06;10516650;28;1906;-61
2022/07/03 11:01:12;;;;;;;;;;;;;;;23.07;48.43;95974.09;10511923;28;1891;-60
2022/07/03 11:06:13;;;;;;;;;;;;;;;23.07;48.48;95966.97;10502737;28;1842;-60
2022/07/03 11:17:10;;;;;;;;;;;;;;;23.08;48.03;95951.91;10516044;28;1988;-62
2022/07/03 11:22:11;;;;;;;;;;;;;;;23.03;48.18;95958.03;10504910;28;1960;-58
2022/07/03 11:27:23;;;;;;;;;;;;;;;23.03;47.96;95938.72;10505131;28;2029;-61
2022/07/03 11:32:41;;;;;;;;;;;;;;;23.03;47.86;95941.38;10504124;28;2059;-60
2022/07/03 11:37:42;;;;;;;;;;;;;;;23.03;47.89;95939.53;10505163;28;1972;-63
2022/07/03 11:42:42;;;;;;;;;;;;;;;23.05;47.64;95932.09;10496596;28;2012;-63
2022/07/03 11:47:42;;;;;;;;;;;;;;;23.06;47.46;95932.88;10509886;28;1834;-64
2022/07/03 11:52:43;;;;;;;;;;;;;;;23.05;47.18;95923.38;10508134;28;1886;-62
2022/07/03 11:57:49;;;;;;;;;;;;;;;23.04;47.21;95930.50;10509465;28;1910;-62
2022/07/03 12:02:49;;;;;;;;;;;;;;;23.04;46.80;95922.56;10508597;28;1863;-63
2022/07/03 12:08:10;;;;;;;;;;;;;;;23.03;46.73;95925.50;10512206;28;1863;-63
2022/07/03 12:13:22;;;;;;;;;;;;;;;23.03;46.90;95920.22;10506797;28;1820;-60
2022/07/03 12:18:23;;;;;;;;;;;;;;;23.00;46.38;95913.63;10506659;28;2000;-62
2022/07/03 12:23:23;;;;;;;;;;;;;;;23.01;46.53;95911.78;10507534;28;2227;-63
2022/07/03 12:28:23;;;;;;;;;;;;;;;23.02;46.41;95906.22;10502766;28;1840;-61
2022/07/03 12:33:24;;;;;;;;;;;;;;;23.00;46.15;95907.59;10501653;28;1882;-59
2022/07/03 12:38:28;;;;;;;;;;;;;;;23.00;46.16;95905.72;10504419;28;1906;-59
2022/07/03 12:43:35;;;;;;;;;;;;;;;23.00;45.81;95905.72;10510141;28;1836;-62
2022/07/03 12:48:44;;;;;;;;;;;;;;;23.01;45.62;95890.63;10510008;28;1811;-62
2022/07/03 12:53:44;;;;;;;;;;;;;;;23.01;45.71;95898.56;10507466;28;1987;-61
2022/07/03 13:04:04;;;;;;;;;;;;;;;23.02;45.32;95889.59;10510541;28;1902;-60
2022/07/03 13:09:05;;;;;;;;;;;;;;;23.03;45.53;95877.91;10508260;28;2361;-63
2022/07/03 13:14:14;;;;;;;;;;;;;;;23.01;45.36;95880.06;10505796;28;1959;-59
2022/07/03 13:19:15;;;;;;;;;;;;;;;23.03;45.44;95864.69;10511160;28;1847;-63
2022/07/03 13:24:16;;;;;;;;;;;;;;;23.02;45.31;95879.00;10507141;28;2132;-63
2022/07/03 13:29:16;;;;;;;;;;;;;;;23.03;45.33;95867.34;10507273;28;1776;-61
2022/07/03 13:34:17;;;;;;;;;;;;;;;23.05;45.23;95865.19;10498706;28;1979;-60
2022/07/03 13:39:17;;;;;;;;;;;;;;;23.03;44.83;95859.41;10501912;28;1968;-63
2022/07/03 13:44:18;;;;;;;;;;;;;;;23.03;44.67;95860.22;10505641;28;1895;-61
2022/07/03 13:49:19;;;;;;;;;;;;;;;23.04;44.90;95861.00;10503949;28;1915;-62
2022/07/03 13:54:20;;;;;;;;;;;;;;;23.05;44.53;95854.63;10503246;28;1981;-59
2022/07/03 13:59:22;;;;;;;;;;;;;;;23.03;44.48;95847.00;10507940;28;2074;-57
2022/07/03 14:04:22;;;;;;;;;;;;;;;23.03;44.51;95843.56;10508336;28;1915;-63
2022/07/03 14:09:22;;;;;;;;;;;;;;;23.04;44.48;95839.84;10508370;28;1911;-61
2022/07/03 14:14:23;;;;;;;;;;;;;;;23.06;44.77;95848.28;10504481;28;2149;-62
2022/07/03 14:19:24;;;;;;;;;;;;;;;23.06;44.41;95837.69;10507359;28;1908;-59
2022/07/03 14:24:24;;;;;;;;;;;;;;;23.05;44.78;95836.13;10505720;28;2152;-58
2022/07/03 14:34:44;;;;;;;;;;;;;;;23.06;44.70;95835.06;10504658;28;2026;-63
2022/07/03 14:39:45;;;;;;;;;;;;;;;23.07;44.44;95829.47;10505836;28;1823;-63
2022/07/03 14:44:46;;;;;;;;;;;;;;;23.07;44.62;95828.69;10512315;28;1925;-61
2022/07/03 14:49:46;;;;;;;;;;;;;;;23.08;44.62;95824.97;10508870;28;1784;-62
2022/07/03 14:54:46;;;;;;;;;;;;;;;23.08;44.63;95822.34;10500231;28;1913;-60
2022/07/03 14:59:50;;;;;;;;;;;;;;;23.09;44.42;95822.03;10508019;28;1808;-58
2022/07/03 15:04:51;;;;;;;;;;;;;;;23.08;44.49;95820.47;10509298;28;1883;-58
2022/07/03 15:10:02;;;;;;;;;;;;;;;23.09;44.56;95808.03;10513221;28;1772;-64
2022/07/03 15:15:02;;;;;;;;;;;;;;;23.09;44.47;95808.03;10506878;28;1973;-63
2022/07/03 15:20:04;;;;;;;;;;;;;;;23.10;44.46;95812.25;10511491;28;2080;-60
2022/07/03 15:25:05;;;;;;;;;;;;;;;23.11;44.46;95801.38;10505571;28;1709;-60
2022/07/03 15:30:06;;;;;;;;;;;;;;;23.11;44.25;95798.75;10486423;28;1836;-63
2022/07/03 15:35:06;;;;;;;;;;;;;;;23.11;44.14;95805.88;10487981;28;1973;-60
2022/07/03 15:40:23;;;;;;;;;;;;;;;23.13;44.69;95798.44;10506934;28;1923;-62
2022/07/03 15:45:24;;;;;;;;;;;;;;;23.19;45.15;95799.94;10510296;28;2116;-59
2022/07/03 15:50:31;;;;;;;;;;;;;;;23.25;45.71;95782.91;10498934;28;1427;-60
2022/07/03 15:55:33;;;;;;;;;;;;;;;23.30;45.71;95793.41;10499122;28;1909;-62
2022/07/03 16:00:35;;;;;;;;;;;;;;;23.30;46.33;95783.63;10507386;28;1938;-61
2022/07/03 16:05:36;;;;;;;;;;;;;;;23.32;46.41;95776.22;10507713;28;1911;-58
2022/07/03 16:10:37;;;;;;;;;;;;;;;23.35;46.96;95778.28;10513116;28;1788;-59
2022/07/03 16:15:39;;;;;;;;;;;;;;;23.37;46.93;95778.78;10502443;28;1993;-57
2022/07/03 16:20:40;;;;;;;;;;;;;;;23.39;46.83;95776.63;10509398;28;2162;-60
2022/07/03 16:25:40;;;;;;;;;;;;;;;23.39;47.12;95773.19;10511634;28;1756;-58
2022/07/03 16:30:45;;;;;;;;;;;;;;;23.42;47.17;95772.63;10504759;28;1740;-60
2022/07/03 16:35:46;;;;;;;;;;;;;;;23.44;47.17;95775.75;10504610;28;2012;-59
2022/07/03 16:40:46;;;;;;;;;;;;;;;23.49;47.33;95767.75;10509808;28;1824;-60
2022/07/03 16:45:48;;;;;;;;;;;;;;;23.46;48.07;95773.59;10502616;28;1804;-61
2022/07/03 16:50:50;;;;;;;;;;;;;;;23.46;48.11;95770.94;10500081;28;1834;-63
2022/07/03 16:55:50;;;;;;;;;;;;;;;23.47;48.20;95775.19;10504759;28;1929;-61
2022/07/03 17:00:51;;;;;;;;;;;;;;;23.67;47.44;95768.72;10500977;28;2061;-64
2022/07/03 17:05:52;;;;;;;;;;;;;;;23.82;47.10;95763.94;10501458;28;2216;-62
2022/07/03 17:10:53;;;;;;;;;;;;;;;23.98;46.75;95773.19;10499346;28;1807;-63
2022/07/03 17:15:54;;;;;;;;;;;;;;;24.13;46.65;95775.53;10492443;28;1878;-61
2022/07/03 17:20:56;;;;;;;;;;;;;;;24.15;46.77;95775.25;10509101;28;1849;-60
2022/07/03 17:25:57;;;;;;;;;;;;;;;24.13;46.59;95772.13;10483443;28;1753;-61
2022/07/03 17:31:03;;;;;;;;;;;;;;;24.09;46.48;95771.16;10493752;28;1935;-63
2022/07/03 17:36:04;;;;;;;;;;;;;;;24.02;46.58;95766.22;10505569;28;1909;-62
2022/07/03 17:41:05;;;;;;;;;;;;;;;23.99;46.56;95760.69;10499931;28;1855;-57
2022/07/03 17:46:05;;;;;;;;;;;;;;;23.93;46.52;95757.38;10500252;28;1769;-59
2022/07/03 17:51:05;;;;;;;;;;;;;;;23.82;46.64;95747.28;10492209;28;1744;-58
2022/07/03 17:56:06;;;;;;;;;;;;;;;23.76;46.69;95741.28;10500792;28;1972;-59
2022/07/03 18:01:06;;;;;;;;;;;;;;;23.70;46.78;95741.69;10496755;28;1812;-61
2022/07/03 18:06:07;;;;;;;;;;;;;;;23.64;46.80;95745.53;10509816;28;1862;-60
2022/07/03 18:11:13;;;;;;;;;;;;;;;23.62;46.92;95735.19;10495116;28;1878;-60
2022/07/03 18:16:14;;;;;;;;;;;;;;;23.59;46.77;95740.31;10501139;28;1977;-58
2022/07/03 18:21:16;;;;;;;;;;;;;;;23.55;46.25;95736.69;10497605;28;1840;-60
2022/07/03 18:26:25;;;;;;;;;;;;;;;23.52;45.68;95735.38;10501132;28;1803;-61
2022/07/03 18:31:25;;;;;;;;;;;;;;;23.49;45.35;95736.00;10504704;28;1800;-61
2022/07/03 18:36:25;;;;;;;;;;;;;;;23.47;44.90;95737.34;10510922;28;1909;-61
2022/07/03 18:41:26;;;;;;;;;;;;;;;23.46;44.78;95736.56;10495014;28;1901;-61
2022/07/03 18:46:27;;;;;;;;;;;;;;;23.44;45.13;95742.16;10520481;28;1855;-59
2022/07/03 18:51:27;;;;;;;;;;;;;;;23.43;44.83;95739.81;10507716;28;1863;-58
2022/07/03 18:56:29;;;;;;;;;;;;;;;23.42;44.84;95740.88;10512151;28;1909;-61
2022/07/03 19:01:30;;;;;;;;;;;;;;;23.42;45.55;95741.66;10507039;28;1665;-60
2022/07/03 19:06:31;;;;;;;;;;;;;;;23.46;45.74;95741.84;10509211;28;1929;-61
2022/07/03 19:11:43;;;;;;;;;;;;;;;23.49;46.01;95741.28;10507160;28;1870;-59
2022/07/03 19:16:44;;;;;;;;;;;;;;;23.50;45.98;95742.03;10517514;28;1980;-61
2022/07/03 19:21:44;;;;;;;;;;;;;;;23.47;46.01;95742.66;10517132;28;1899;-60
2022/07/03 19:26:45;;;;;;;;;;;;;;;23.47;45.89;95743.44;10507684;28;1825;-60
2022/07/03 19:31:45;;;;;;;;;;;;;;;23.49;46.06;95740.50;10486808;28;1903;-60
2022/07/03 19:36:46;;;;;;;;;;;;;;;23.47;46.21;95748.72;10502808;28;1914;-58
2022/07/03 19:41:46;;;;;;;;;;;;;;;23.47;45.96;95754.03;10499576;28;1931;-58
2022/07/03 19:46:46;;;;;;;;;;;;;;;23.45;45.89;95756.94;10500265;28;1846;-58
2022/07/03 19:51:47;;;;;;;;;;;;;;;23.45;45.64;95756.16;10499141;28;1953;-60
2022/07/03 19:56:47;;;;;;;;;;;;;;;23.46;45.41;95755.09;10500515;28;1973;-59
2022/07/03 20:01:48;;;;;;;;;;;;;;;23.45;45.51;95754.28;10497894;28;1867;-58
2022/07/03 20:06:50;;;;;;;;;;;;;;;23.44;45.69;95755.38;10515591;28;1823;-59
2022/07/03 20:11:53;;;;;;;;;;;;;;;23.45;45.60;95754.28;10494923;28;1875;-60
2022/07/03 20:16:55;;;;;;;;;;;;;;;23.46;45.62;95747.16;10511733;28;1902;-60
2022/07/03 20:21:55;;;;;;;;;;;;;;;23.45;45.73;95737.66;10504402;28;1842;-60
2022/07/03 20:26:56;;;;;;;;;;;;;;;23.44;45.97;95744.00;10510835;28;2017;-60
2022/07/03 20:31:56;;;;;;;;;;;;;;;23.43;45.93;95742.44;10507541;28;1859;-60
2022/07/03 20:36:58;;;;;;;;;;;;;;;23.44;46.08;95750.09;10512433;28;1979;-58
2022/07/03 20:41:59;;;;;;;;;;;;;;;23.45;45.97;95753.53;10502683;28;1893;-60
2022/07/03 20:47:01;;;;;;;;;;;;;;;23.46;45.61;95755.09;10512110;28;1985;-60
2022/07/03 20:52:01;;;;;;;;;;;;;;;23.47;45.10;95754.03;10508764;28;1823;-60
2022/07/03 20:57:03;;;;;;;;;;;;;;;23.46;45.45;95757.72;10503341;28;1961;-59
2022/07/03 21:02:04;;;;;;;;;;;;;;;23.44;45.26;95758.03;10507299;28;1952;-58
2022/07/03 21:07:04;;;;;;;;;;;;;;;23.44;45.08;95765.97;10508177;28;1855;-60
2022/07/03 21:12:05;;;;;;;;;;;;;;;23.45;44.93;95778.09;10504062;28;1823;-59
2022/07/03 21:17:06;;;;;;;;;;;;;;;23.44;45.42;95784.47;10504186;28;1906;-60
2022/07/03 21:22:07;;;;;;;;;;;;;;;23.47;45.58;95785.75;10506817;28;1852;-60
2022/07/03 21:27:08;;;;;;;;;;;;;;;23.50;45.63;95774.59;10505553;28;1811;-60
2022/07/03 21:32:08;;;;;;;;;;;;;;;23.51;45.62;95776.16;10504862;28;1807;-59
2022/07/03 21:37:09;;;;;;;;;;;;;;;23.53;45.59;95771.38;10507321;28;1971;-59
2022/07/03 21:42:09;;;;;;;;;;;;;;;23.53;45.76;95775.88;10504645;28;1811;-60
2022/07/03 21:47:09;;;;;;;;;;;;;;;23.55;45.85;95771.06;10504336;28;1859;-58
2022/07/03 21:52:09;;;;;;;;;;;;;;;23.55;45.90;95771.06;10501613;28;1781;-60
2022/07/03 21:57:10;;;;;;;;;;;;;;;23.55;46.00;95773.72;10510565;28;1910;-56
2022/07/03 22:02:10;;;;;;;;;;;;;;;23.53;46.22;95774.03;10507494;28;1771;-57
2022/07/03 22:07:11;;;;;;;;;;;;;;;23.52;46.45;95783.00;10505317;28;1721;-59
2022/07/03 22:17:34;;;;;;;;;;;;;;;23.47;46.41;95772.53;10516331;28;1909;-59
2022/07/03 22:22:35;;;;;;;;;;;;;;;23.43;46.61;95784.78;10515094;28;1807;-59
2022/07/03 22:27:35;;;;;;;;;;;;;;;23.41;46.90;95771.06;10520679;28;1871;-60
2022/07/03 22:32:35;;;;;;;;;;;;;;;23.41;46.89;95763.13;10516859;28;1772;-60
2022/07/03 22:37:37;;;;;;;;;;;;;;;23.42;46.63;95762.03;10518392;28;1937;-60
2022/07/03 22:42:39;;;;;;;;;;;;;;;23.40;46.95;95753.59;10511709;28;1839;-60
2022/07/03 22:47:41;;;;;;;;;;;;;;;23.37;47.16;95759.47;10517138;28;1827;-60
2022/07/03 22:52:41;;;;;;;;;;;;;;;23.35;47.16;95751.03;10514236;28;1798;-59
2022/07/03 22:57:41;;;;;;;;;;;;;;;23.33;47.29;95755.81;10518614;28;1987;-58
2022/07/03 23:02:41;;;;;;;;;;;;;;;23.29;47.54;95752.16;10512257;28;1827;-55
2022/07/03 23:07:42;;;;;;;;;;;;;;;23.28;47.56;95759.34;10514252;28;1870;-60
2022/07/03 23:12:43;;;;;;;;;;;;;;;23.24;47.64;95755.69;10508265;28;1847;-60
2022/07/03 23:17:45;;;;;;;;;;;;;;;23.22;47.70;95762.34;10514207;28;1906;-60
2022/07/03 23:22:46;;;;;;;;;;;;;;;23.20;47.76;95760.00;10516333;28;1835;-60
2022/07/03 23:27:47;;;;;;;;;;;;;;;23.19;47.86;95778.78;10514398;28;1874;-59
2022/07/03 23:32:47;;;;;;;;;;;;;;;23.16;48.27;95784.66;10514263;28;1796;-57
2022/07/03 23:37:47;;;;;;;;;;;;;;;23.13;48.19;95796.59;10511372;28;1965;-60
2022/07/03 23:42:48;;;;;;;;;;;;;;;23.10;48.12;95791.88;10511696;28;1744;-58
2022/07/03 23:47:49;;;;;;;;;;;;;;;23.07;48.33;95803.03;10512532;28;1800;-60
2022/07/03 23:52:49;;;;;;;;;;;;;;;23.06;48.13;95822.59;10510433;28;1787;-60
2022/07/03 23:57:49;;;;;;;;;;;;;;;23.06;47.75;95838.47;10512151;28;1910;-60
